createdAt,value
2019-03-01T00:02:26.762Z,18.10
2019-03-01T00:05:34.860Z,20.97
2019-03-01T00:08:13.311Z,19.80
2019-03-01T00:11:13.066Z,21.83
2019-03-01T00:14:06.341Z,25.63
2019-03-01T00:16:58.991Z,21.23
2019-03-01T00:20:14.414Z,22.70
2019-03-01T00:23:12.489Z,29.13
2019-03-01T00:26:06.330Z,33.80
2019-03-01T00:29:24.718Z,27.40
2019-03-01T00:32:27.716Z,30.57
2019-03-01T00:35:20.790Z,31.03
2019-03-01T00:38:33.375Z,27.03
2019-03-01T00:41:30.121Z,24.60
2019-03-01T00:44:30.409Z,27.73
2019-03-01T00:46:57.913Z,27.53
2019-03-01T00:49:25.293Z,24.27
2019-03-01T00:51:52.723Z,32.10
2019-03-01T00:54:20.122Z,26.50
2019-03-01T00:56:47.510Z,28.77
2019-03-01T00:59:14.960Z,28.10
2019-03-01T01:01:42.360Z,23.00
2019-03-01T01:04:09.866Z,23.20
2019-03-01T01:06:37.321Z,29.80
2019-03-01T01:09:05.874Z,24.27
2019-03-01T01:11:33.309Z,28.07
2019-03-01T01:14:00.985Z,23.13
2019-03-01T01:16:28.378Z,25.83
2019-03-01T01:18:55.761Z,23.93
2019-03-01T01:21:23.692Z,20.60
2019-03-01T01:23:51.253Z,25.10
2019-03-01T01:26:18.638Z,18.37
2019-03-01T01:28:46.270Z,19.63
2019-03-01T01:31:13.767Z,25.90
2019-03-01T01:33:41.157Z,21.07
2019-03-01T01:36:08.597Z,26.80
2019-03-01T01:38:35.979Z,17.70
2019-03-01T01:41:03.574Z,29.50
2019-03-01T01:43:31.450Z,31.27
2019-03-01T01:45:58.839Z,23.53
2019-03-01T01:48:26.251Z,28.03
2019-03-01T01:50:53.721Z,24.70
2019-03-01T01:53:21.119Z,26.80
2019-03-01T01:55:48.506Z,34.03
2019-03-01T01:58:16.121Z,28.03
2019-03-01T02:00:43.524Z,29.17
2019-03-01T02:03:11.112Z,25.17
2019-03-01T02:05:38.615Z,23.60
2019-03-01T02:08:06.010Z,34.70
2019-03-01T02:10:33.403Z,24.03
2019-03-01T02:13:00.994Z,33.43
2019-03-01T02:15:28.398Z,32.57
2019-03-01T02:17:55.796Z,29.00
2019-03-01T02:20:23.372Z,21.33
2019-03-01T02:22:50.870Z,25.57
2019-03-01T02:25:18.264Z,17.63
2019-03-01T02:27:45.868Z,20.10
2019-03-01T02:30:16.136Z,24.60
2019-03-01T02:32:47.897Z,26.77
2019-03-01T02:35:22.764Z,30.30
2019-03-01T02:37:50.154Z,22.23
2019-03-01T02:40:37.114Z,17.93
2019-03-01T02:43:04.954Z,24.20
2019-03-01T02:45:32.552Z,23.47
2019-03-01T02:47:59.958Z,29.53
2019-03-01T02:50:27.427Z,34.10
2019-03-01T02:52:54.811Z,25.00
2019-03-01T02:55:22.215Z,28.73
2019-03-01T02:57:49.940Z,27.60
2019-03-01T03:00:19.434Z,22.50
2019-03-01T03:02:46.834Z,25.83
2019-03-01T03:05:14.850Z,27.13
2019-03-01T03:07:46.306Z,21.57
2019-03-01T03:10:13.791Z,24.87
2019-03-01T03:12:41.211Z,25.60
2019-03-01T03:15:09.226Z,26.27
2019-03-01T03:17:36.620Z,32.13
2019-03-01T03:20:04.767Z,29.57
2019-03-01T03:22:32.212Z,30.07
2019-03-01T03:24:59.634Z,23.13
2019-03-01T03:27:27.096Z,19.47
2019-03-01T03:29:54.515Z,26.57
2019-03-01T03:32:21.912Z,34.63
2019-03-01T03:34:49.367Z,28.37
2019-03-01T03:37:16.764Z,27.20
2019-03-01T03:39:44.163Z,32.27
2019-03-01T03:42:11.591Z,22.90
2019-03-01T03:44:39.375Z,27.67
2019-03-01T03:47:06.783Z,26.70
2019-03-01T03:49:34.444Z,29.27
2019-03-01T03:52:01.880Z,26.70
2019-03-01T03:54:29.263Z,29.80
2019-03-01T03:56:56.688Z,29.00
2019-03-01T03:59:24.101Z,27.43
2019-03-01T04:01:51.586Z,23.60
2019-03-01T04:04:19.383Z,25.40
2019-03-01T04:06:46.779Z,25.73
2019-03-01T04:09:14.172Z,32.20
2019-03-01T04:11:41.722Z,26.77
2019-03-01T04:14:09.107Z,30.37
2019-03-01T04:16:36.514Z,23.43
2019-03-01T04:19:03.948Z,24.27
2019-03-01T04:21:31.356Z,25.50
2019-03-01T04:23:58.753Z,29.67
2019-03-01T04:26:26.205Z,32.63
2019-03-01T04:28:53.612Z,22.83
2019-03-01T04:31:21.006Z,23.73
2019-03-01T04:33:48.714Z,36.03
2019-03-01T04:36:16.659Z,27.90
2019-03-01T04:38:44.058Z,25.93
2019-03-01T04:41:11.584Z,27.20
2019-03-01T04:43:39.290Z,20.40
2019-03-01T04:46:06.681Z,27.97
2019-03-01T04:48:34.306Z,24.67
2019-03-01T04:51:01.721Z,29.20
2019-03-01T04:53:29.115Z,30.73
2019-03-01T04:55:56.559Z,27.53
2019-03-01T04:58:23.951Z,23.83
2019-03-01T05:00:51.342Z,30.87
2019-03-01T05:03:18.778Z,23.07
2019-03-01T05:05:46.182Z,31.83
2019-03-01T05:08:13.574Z,26.63
2019-03-01T05:10:41.567Z,30.57
2019-03-01T05:13:08.972Z,26.33
2019-03-01T05:15:36.362Z,29.10
2019-03-01T05:18:04.163Z,26.30
2019-03-01T05:20:31.578Z,28.77
2019-03-01T05:22:58.962Z,23.40
2019-03-01T05:25:26.430Z,26.23
2019-03-01T05:27:53.802Z,29.80
2019-03-01T05:30:21.205Z,31.13
2019-03-01T05:32:48.686Z,28.50
2019-03-01T05:35:16.081Z,25.23
2019-03-01T05:37:43.486Z,19.40
2019-03-01T05:40:11.538Z,26.70
2019-03-01T05:42:39.990Z,24.07
2019-03-01T05:45:13.441Z,27.40
2019-03-01T05:47:40.859Z,30.10
2019-03-01T05:50:09.454Z,27.10
2019-03-01T05:52:36.854Z,23.33
2019-03-01T05:55:04.791Z,26.00
2019-03-01T05:57:32.467Z,29.70
2019-03-01T05:59:59.878Z,25.87
2019-03-01T06:02:59.215Z,19.80
2019-03-01T06:05:33.746Z,22.83
2019-03-01T06:08:52.047Z,22.97
2019-03-01T06:11:56.606Z,24.07
2019-03-01T06:14:58.665Z,20.80
2019-03-01T06:18:02.226Z,32.40
2019-03-01T06:21:11.259Z,24.90
2019-03-01T06:24:15.131Z,27.67
2019-03-01T06:27:36.470Z,24.50
2019-03-01T06:30:53.532Z,27.27
2019-03-01T06:33:50.987Z,23.70
2019-03-01T06:36:58.526Z,22.10
2019-03-01T06:40:20.507Z,23.33
2019-03-01T06:43:28.810Z,24.90
2019-03-01T06:46:23.546Z,21.37
2019-03-01T06:49:00.979Z,22.37
2019-03-01T06:51:31.153Z,22.37
2019-03-01T06:53:58.529Z,26.30
2019-03-01T06:56:26.034Z,23.23
2019-03-01T06:58:56.850Z,22.03
2019-03-01T07:01:32.194Z,24.47
2019-03-01T07:04:28.428Z,25.10
2019-03-01T07:06:55.865Z,23.50
2019-03-01T07:09:23.213Z,25.70
2019-03-01T07:11:50.625Z,25.10
2019-03-01T07:14:18.014Z,31.10
2019-03-01T07:16:45.398Z,21.60
2019-03-01T07:19:12.817Z,22.10
2019-03-01T07:21:40.219Z,17.77
2019-03-01T07:24:07.761Z,24.73
2019-03-01T07:26:35.589Z,25.80
2019-03-01T07:29:02.976Z,26.80
2019-03-01T07:31:30.355Z,22.33
2019-03-01T07:33:57.975Z,20.43
2019-03-01T07:36:25.363Z,25.93
2019-03-01T07:38:52.764Z,24.60
2019-03-01T07:41:20.192Z,23.33
2019-03-01T07:43:48.054Z,23.53
2019-03-01T07:46:15.438Z,22.60
2019-03-01T07:48:43.065Z,27.00
2019-03-01T07:51:10.453Z,21.17
2019-03-01T07:53:41.863Z,18.80
2019-03-01T07:56:07.184Z,22.07
2019-03-01T07:58:34.569Z,20.73
2019-03-01T08:01:01.973Z,18.90
2019-03-01T08:03:29.398Z,23.03
2019-03-01T08:05:56.798Z,16.30
2019-03-01T08:08:24.171Z,25.17
2019-03-01T08:10:53.507Z,26.07
2019-03-01T08:13:20.863Z,17.00
2019-03-01T08:15:48.250Z,22.50
2019-03-01T08:18:15.673Z,29.40
2019-03-01T08:20:43.076Z,25.63
2019-03-01T08:23:10.455Z,23.07
2019-03-01T08:25:37.871Z,24.13
2019-03-01T08:28:05.276Z,20.27
2019-03-01T08:30:32.658Z,18.40
2019-03-01T08:33:02.621Z,24.50
2019-03-01T08:35:32.069Z,25.27
2019-03-01T08:37:58.518Z,22.70
2019-03-01T08:40:26.026Z,19.10
2019-03-01T08:42:53.608Z,23.00
2019-03-01T08:45:21.243Z,22.20
2019-03-01T08:47:49.098Z,24.80
2019-03-01T08:50:17.563Z,20.23
2019-03-01T08:52:45.316Z,25.10
2019-03-01T08:55:14.278Z,20.90
2019-03-01T08:57:44.441Z,24.63
2019-03-01T09:00:16.610Z,30.73
2019-03-01T09:02:44.082Z,22.33
2019-03-01T09:05:11.579Z,22.93
2019-03-01T09:07:39.020Z,21.17
2019-03-01T09:10:08.053Z,21.10
2019-03-01T09:12:35.436Z,29.70
2019-03-01T09:15:04.492Z,38.37
2019-03-01T09:17:33.030Z,34.53
2019-03-01T09:20:01.189Z,25.10
2019-03-01T09:22:28.869Z,15.13
2019-03-01T09:24:56.310Z,23.33
2019-03-01T09:27:26.715Z,17.70
2019-03-01T09:29:52.939Z,15.77
2019-03-01T09:32:20.342Z,19.70
2019-03-01T09:34:50.314Z,18.37
2019-03-01T09:37:17.757Z,16.47
2019-03-01T09:39:45.151Z,21.10
2019-03-01T09:42:15.471Z,19.23
2019-03-01T09:44:41.778Z,17.33
2019-03-01T09:47:09.306Z,17.10
2019-03-01T09:49:36.690Z,19.17
2019-03-01T09:52:04.111Z,17.97
2019-03-01T09:54:31.650Z,12.70
2019-03-01T09:56:59.055Z,22.93
2019-03-01T09:59:26.478Z,25.10
2019-03-01T10:01:53.870Z,24.20
2019-03-01T10:04:21.311Z,21.00
2019-03-01T10:06:49.042Z,19.37
2019-03-01T10:09:16.409Z,17.70
2019-03-01T10:11:43.839Z,11.67
2019-03-01T10:14:11.478Z,12.07
2019-03-01T10:16:38.842Z,12.30
2019-03-01T10:19:06.242Z,9.00
2019-03-01T10:21:33.649Z,11.53
2019-03-01T10:24:01.034Z,7.77
2019-03-01T10:26:28.422Z,5.20
2019-03-01T10:28:56.138Z,6.27
2019-03-01T10:31:23.530Z,7.20
2019-03-01T10:33:50.905Z,3.60
2019-03-01T10:36:18.377Z,3.30
2019-03-01T10:38:45.769Z,13.40
2019-03-01T10:41:13.154Z,6.90
2019-03-01T10:43:40.579Z,4.10
2019-03-01T10:46:08.182Z,5.50
2019-03-01T10:48:35.566Z,6.10
2019-03-01T10:51:03.015Z,5.30
2019-03-01T10:53:30.398Z,6.10
2019-03-01T10:55:58.058Z,5.90
2019-03-01T10:58:25.487Z,6.23
2019-03-01T11:00:52.882Z,7.37
2019-03-01T11:03:20.276Z,5.43
2019-03-01T11:05:50.083Z,4.43
2019-03-01T11:08:17.463Z,6.57
2019-03-01T11:10:44.846Z,4.47
2019-03-01T11:13:12.537Z,6.60
2019-03-01T11:15:39.930Z,5.60
2019-03-01T11:18:07.366Z,9.60
2019-03-01T11:20:34.838Z,3.67
2019-03-01T11:23:02.240Z,8.23
2019-03-01T11:25:29.609Z,5.20
2019-03-01T11:27:57.191Z,8.53
2019-03-01T11:30:26.423Z,7.73
2019-03-01T11:32:53.802Z,4.40
2019-03-01T11:35:21.241Z,3.80
2019-03-01T11:37:48.962Z,4.23
2019-03-01T11:40:18.716Z,4.83
2019-03-01T11:42:46.251Z,4.90
2019-03-01T11:45:14.002Z,3.87
2019-03-01T11:47:41.664Z,6.83
2019-03-01T11:50:11.688Z,4.23
2019-03-01T11:52:39.082Z,4.83
2019-03-01T11:55:06.515Z,8.33
2019-03-01T11:57:33.931Z,3.83
2019-03-01T12:00:01.333Z,3.90
2019-03-01T12:02:28.706Z,5.50
2019-03-01T12:04:56.119Z,2.73
2019-03-01T12:07:23.502Z,4.30
2019-03-01T12:09:50.888Z,3.90
2019-03-01T12:12:18.386Z,3.33
2019-03-01T12:14:45.770Z,3.63
2019-03-01T12:17:13.166Z,2.40
2019-03-01T12:19:40.849Z,3.17
2019-03-01T12:22:16.712Z,5.00
2019-03-01T12:24:37.442Z,1.80
2019-03-01T12:27:05.079Z,2.20
2019-03-01T12:29:32.460Z,1.87
2019-03-01T12:31:59.846Z,2.43
2019-03-01T12:34:27.327Z,3.77
2019-03-01T12:36:54.706Z,1.90
2019-03-01T12:39:22.111Z,1.97
2019-03-01T12:41:49.563Z,2.23
2019-03-01T12:44:17.038Z,2.70
2019-03-01T12:46:44.429Z,1.63
2019-03-01T12:49:12.299Z,1.60
2019-03-01T12:51:39.695Z,2.70
2019-03-01T12:54:07.079Z,2.40
2019-03-01T12:56:34.510Z,2.97
2019-03-01T12:59:01.934Z,3.93
2019-03-01T13:01:29.361Z,3.87
2019-03-01T13:03:56.775Z,4.67
2019-03-01T13:06:24.169Z,3.70
2019-03-01T13:08:52.402Z,3.43
2019-03-01T13:11:19.974Z,2.53
2019-03-01T13:13:47.369Z,2.23
2019-03-01T13:16:14.750Z,3.53
2019-03-01T13:18:42.513Z,3.00
2019-03-01T13:21:12.908Z,3.80
2019-03-01T13:23:40.494Z,3.13
2019-03-01T13:26:08.540Z,4.23
2019-03-01T13:28:35.918Z,7.10
2019-03-01T13:31:03.350Z,6.20
2019-03-01T13:33:30.863Z,3.80
2019-03-01T13:36:00.049Z,5.13
2019-03-01T13:38:30.360Z,4.23
2019-03-01T13:40:58.837Z,6.13
2019-03-01T13:43:27.398Z,4.10
2019-03-01T13:45:55.246Z,4.33
2019-03-01T13:48:22.894Z,7.80
2019-03-01T13:50:50.718Z,5.83
2019-03-01T13:53:18.111Z,3.43
2019-03-01T13:55:45.527Z,9.43
2019-03-01T13:58:12.926Z,10.53
2019-03-01T14:00:45.646Z,6.67
2019-03-01T14:03:12.490Z,7.73
2019-03-01T14:05:39.875Z,7.40
2019-03-01T14:08:09.332Z,4.80
2019-03-01T14:10:38.503Z,4.33
2019-03-01T14:13:05.900Z,4.13
2019-03-01T14:15:35.010Z,3.90
2019-03-01T14:18:02.561Z,5.50
2019-03-01T14:20:29.949Z,8.23
2019-03-01T14:22:57.338Z,3.77
2019-03-01T14:25:24.758Z,3.60
2019-03-01T14:27:52.960Z,5.00
2019-03-01T14:30:20.446Z,6.10
2019-03-01T14:32:47.904Z,4.50
2019-03-01T14:35:15.286Z,4.00
2019-03-01T14:37:42.669Z,5.40
2019-03-01T14:40:11.150Z,3.33
2019-03-01T14:42:38.529Z,3.23
2019-03-01T14:45:12.310Z,3.07
2019-03-01T14:47:39.835Z,6.40
2019-03-01T14:50:08.822Z,4.87
2019-03-01T14:52:36.333Z,5.77
2019-03-01T14:55:04.347Z,4.10
2019-03-01T14:57:38.734Z,4.07
2019-03-01T15:00:19.230Z,3.67
2019-03-01T15:02:51.735Z,6.03
2019-03-01T15:05:19.881Z,6.60
2019-03-01T15:07:47.409Z,4.80
2019-03-01T15:10:15.627Z,6.77
2019-03-01T15:12:43.038Z,2.97
2019-03-01T15:15:11.282Z,7.13
2019-03-01T15:17:38.930Z,4.70
2019-03-01T15:20:09.132Z,6.63
2019-03-01T15:22:36.518Z,19.30
2019-03-01T15:25:04.225Z,14.50
2019-03-01T15:27:31.634Z,8.00
2019-03-01T15:29:59.036Z,9.63
2019-03-01T15:32:26.470Z,7.00
2019-03-01T15:34:53.848Z,11.83
2019-03-01T15:37:21.227Z,6.67
2019-03-01T15:39:51.277Z,6.03
2019-03-01T15:42:20.986Z,3.90
2019-03-01T15:44:47.265Z,9.43
2019-03-01T15:47:14.838Z,9.07
2019-03-01T15:49:42.285Z,8.57
2019-03-01T15:52:10.700Z,4.40
2019-03-01T15:54:38.900Z,6.73
2019-03-01T15:57:06.286Z,9.60
2019-03-01T15:59:33.674Z,7.10
2019-03-01T16:02:01.113Z,9.10
2019-03-01T16:04:30.383Z,8.03
2019-03-01T16:06:57.705Z,7.20
2019-03-01T16:09:26.396Z,7.83
2019-03-01T16:11:56.356Z,15.27
2019-03-01T16:14:24.208Z,9.87
2019-03-01T16:16:52.447Z,18.03
2019-03-01T16:19:19.860Z,6.57
2019-03-01T16:21:47.257Z,5.03
2019-03-01T16:24:14.691Z,7.90
2019-03-01T16:26:42.089Z,5.70
2019-03-01T16:29:09.486Z,9.23
2019-03-01T16:31:36.929Z,11.83
2019-03-01T16:34:05.210Z,7.20
2019-03-01T16:36:35.827Z,9.13
2019-03-01T16:39:05.481Z,6.47
2019-03-01T16:41:32.883Z,7.13
2019-03-01T16:44:01.327Z,8.03
2019-03-01T16:46:31.326Z,6.70
2019-03-01T16:48:59.397Z,6.87
2019-03-01T16:51:26.800Z,7.17
2019-03-01T16:53:54.254Z,4.90
2019-03-01T16:56:21.691Z,5.60
2019-03-01T16:58:49.084Z,4.13
2019-03-01T17:01:16.649Z,4.13
2019-03-01T17:03:44.054Z,3.90
2019-03-01T17:06:13.787Z,4.73
2019-03-01T17:08:40.706Z,8.93
2019-03-01T17:11:08.102Z,15.10
2019-03-01T17:13:35.478Z,16.40
2019-03-01T17:16:02.965Z,16.07
2019-03-01T17:18:30.342Z,12.07
2019-03-01T17:20:57.734Z,12.10
2019-03-01T17:23:25.177Z,13.60
2019-03-01T17:25:52.594Z,9.50
2019-03-01T17:28:23.430Z,10.13
2019-03-01T17:30:50.804Z,9.87
2019-03-01T17:33:18.530Z,14.70
2019-03-01T17:35:45.902Z,16.67
2019-03-01T17:38:13.559Z,14.07
2019-03-01T17:40:40.952Z,12.57
2019-03-01T17:43:08.340Z,8.40
2019-03-01T17:45:35.755Z,10.90
2019-03-01T17:48:03.430Z,5.53
2019-03-01T17:50:30.842Z,6.57
2019-03-01T17:52:58.403Z,7.53
2019-03-01T17:55:25.802Z,4.70
2019-03-01T17:57:53.185Z,8.27
2019-03-01T18:00:26.671Z,9.83
2019-03-01T18:02:54.174Z,9.43
2019-03-01T18:05:21.557Z,14.00
2019-03-01T18:07:49.188Z,22.63
2019-03-01T18:10:16.706Z,14.20
2019-03-01T18:12:44.099Z,13.63
2019-03-01T18:15:12.373Z,16.03
2019-03-01T18:17:40.564Z,27.90
2019-03-01T18:20:08.507Z,34.40
2019-03-01T18:22:35.929Z,18.63
2019-03-01T18:25:04.215Z,16.83
2019-03-01T18:27:31.878Z,13.27
2019-03-01T18:29:59.314Z,13.70
2019-03-01T18:32:26.748Z,13.03
2019-03-01T18:34:54.129Z,13.20
2019-03-01T18:37:21.617Z,13.20
2019-03-01T18:39:49.018Z,17.80
2019-03-01T18:42:16.420Z,18.30
2019-03-01T18:44:44.026Z,15.50
2019-03-01T18:47:11.589Z,16.67
2019-03-01T18:49:39.049Z,17.13
2019-03-01T18:52:06.504Z,22.73
2019-03-01T18:54:35.809Z,17.40
2019-03-01T18:57:03.644Z,14.27
2019-03-01T18:59:32.025Z,17.37
2019-03-01T19:02:00.833Z,20.80
2019-03-01T19:04:29.626Z,15.80
2019-03-01T19:06:57.455Z,11.57
2019-03-01T19:09:24.879Z,10.20
2019-03-01T19:11:52.282Z,13.13
2019-03-01T19:14:19.815Z,17.33
2019-03-01T19:16:47.217Z,13.53
2019-03-01T19:19:14.599Z,12.90
2019-03-01T19:21:42.040Z,9.00
2019-03-01T19:24:09.465Z,13.40
2019-03-01T19:26:37.370Z,13.27
2019-03-01T19:29:04.875Z,12.50
2019-03-01T19:31:32.263Z,15.77
2019-03-01T19:33:59.655Z,17.87
2019-03-01T19:36:27.110Z,16.03
2019-03-01T19:38:56.805Z,17.47
2019-03-01T19:41:23.793Z,17.77
2019-03-01T19:43:57.367Z,20.07
2019-03-01T19:46:20.534Z,13.03
2019-03-01T19:48:48.226Z,19.03
2019-03-01T19:51:15.690Z,18.67
2019-03-01T19:53:43.093Z,18.23
2019-03-01T19:56:11.059Z,12.73
2019-03-01T19:58:38.526Z,20.30
2019-03-01T20:01:05.914Z,14.63
2019-03-01T20:03:33.296Z,20.13
2019-03-01T20:06:00.734Z,18.07
2019-03-01T20:08:29.818Z,22.10
2019-03-01T20:10:57.338Z,14.77
2019-03-01T20:13:24.780Z,17.33
2019-03-01T20:15:52.180Z,22.80
2019-03-01T20:18:19.582Z,17.87
2019-03-01T20:20:47.012Z,22.77
2019-03-01T20:23:14.434Z,22.27
2019-03-01T20:25:41.866Z,19.27
2019-03-01T20:28:11.552Z,21.83
2019-03-01T20:30:38.953Z,21.73
2019-03-01T20:33:06.404Z,20.33
2019-03-01T20:35:33.859Z,16.00
2019-03-01T20:38:04.303Z,14.97
2019-03-01T20:40:30.451Z,13.80
2019-03-01T20:43:01.296Z,25.27
2019-03-01T20:45:29.990Z,14.97
2019-03-01T20:47:56.756Z,15.30
2019-03-01T20:50:25.074Z,16.63
2019-03-01T20:52:52.576Z,19.93
2019-03-01T20:55:20.039Z,20.90
2019-03-01T20:57:47.631Z,22.83
2019-03-01T21:00:15.575Z,18.23
2019-03-01T21:02:42.978Z,18.97
2019-03-01T21:05:10.950Z,15.83
2019-03-01T21:07:38.490Z,27.07
2019-03-01T21:10:12.584Z,17.90
2019-03-01T21:12:38.777Z,19.50
2019-03-01T21:15:06.695Z,24.47
2019-03-01T21:17:34.175Z,19.53
2019-03-01T21:20:01.659Z,20.33
2019-03-01T21:22:29.113Z,19.03
2019-03-01T21:24:59.430Z,13.60
2019-03-01T21:27:26.730Z,13.47
2019-03-01T21:29:54.239Z,18.27
2019-03-01T21:32:22.919Z,20.53
2019-03-01T21:34:50.516Z,16.13
2019-03-01T21:37:17.922Z,15.83
2019-03-01T21:39:45.327Z,18.23
2019-03-01T21:42:12.769Z,25.03
2019-03-01T21:44:42.711Z,17.03
2019-03-01T21:47:12.146Z,16.17
2019-03-01T21:49:38.979Z,20.30
2019-03-01T21:52:06.696Z,18.20
2019-03-01T21:54:34.127Z,19.07
2019-03-01T21:57:01.840Z,17.77
2019-03-01T21:59:29.278Z,20.13
2019-03-01T22:01:56.720Z,14.00
2019-03-01T22:04:24.155Z,11.20
2019-03-01T22:06:51.550Z,14.87
2019-03-01T22:09:20.649Z,15.80
2019-03-01T22:11:49.258Z,19.53
2019-03-01T22:14:17.368Z,11.10
2019-03-01T22:16:44.754Z,17.57
2019-03-01T22:19:12.189Z,12.70
2019-03-01T22:21:39.576Z,9.97
2019-03-01T22:24:07.001Z,16.40
2019-03-01T22:26:34.490Z,12.47
2019-03-01T22:29:01.787Z,15.87
2019-03-01T22:31:29.190Z,16.07
2019-03-01T22:33:57.120Z,21.77
2019-03-01T22:36:24.520Z,14.70
2019-03-01T22:38:51.910Z,11.40
2019-03-01T22:41:19.227Z,10.80
2019-03-01T22:43:46.625Z,9.83
2019-03-01T22:46:14.024Z,15.00
2019-03-01T22:48:47.369Z,19.53
2019-03-01T22:51:14.386Z,19.10
2019-03-01T22:53:42.122Z,10.87
2019-03-01T22:56:11.968Z,13.30
2019-03-01T22:58:39.127Z,10.47
2019-03-01T23:01:16.921Z,14.03
2019-03-01T23:03:54.918Z,15.60
2019-03-01T23:06:22.331Z,13.40
2019-03-01T23:08:49.721Z,12.20
2019-03-01T23:11:17.118Z,11.83
2019-03-01T23:13:44.585Z,13.60
2019-03-01T23:16:11.974Z,11.10
2019-03-01T23:18:40.518Z,11.07
2019-03-01T23:21:08.627Z,12.60
2019-03-01T23:23:36.012Z,12.70
2019-03-01T23:26:03.407Z,21.23
2019-03-01T23:28:31.046Z,12.90
2019-03-01T23:31:00.557Z,13.87
2019-03-01T23:33:31.274Z,14.60
2019-03-01T23:35:57.000Z,14.60
2019-03-01T23:38:24.388Z,11.03
2019-03-01T23:40:51.773Z,8.60
2019-03-01T23:43:19.221Z,11.27
2019-03-01T23:45:49.979Z,8.70
2019-03-01T23:48:16.525Z,7.97
2019-03-01T23:50:43.955Z,8.33
2019-03-01T23:53:11.360Z,11.73
2019-03-01T23:55:38.752Z,14.83
2019-03-01T23:58:06.746Z,15.30
